Southwest Oregon Regional Airport North Bend US
ICAO: KOTH
IATA: OTH
Category: Medium
Scheduled Services: Yes

Elevation: 17 ft
TransAlt. 18000 ft.

Airport Communications:
AWOS 3:135.075
SEATTLE CNTR:121.4
AIR:34.5
MC MINNVILLE RDO:122.4
UNICOM:122.7

KOTH Zoom In..

If Map Doesn't Load, Click Here

Runways:

(A) RW 04 length 5980 ft width 150 ft
ILS 108.50 / hdg 43

(B) RW 13 length 4470 ft width 150 ft
---- / hdg 132

(C) RW 22 length 5980 ft width 150 ft
---- / hdg 223

(D) RW 31 length 4470 ft width 150 ft
---- / hdg 312

Location; KOTH
Day. 23 / Time. 08.47 Zulu
* Altimeter: 30.14
* Temperature: 1/° c. 33.8°f.
* Wind from: 130° Speed 04 kn.
Dewpoint: V4° c.
Visibility: 3/4 Statute Miles.
Clouds: Overcast 200 ft.
Conditions: Light Rain.Conditions: Mist.

KOTH 230847Z AUTO 13004KT 3/4SM -RA BR OVC002 11/11 A3014 RMK AO2 VIS 1/2V4 RAB20 P0000 RVRNO


Wind From 130°
Speed 04 kn.

 
 
jpsmedia.com for Web Design worldairports.se 2018   terms of use